Time;durP1;ratioP1;P1;durP2;ratioP2;P2;SDS_P1;SDS_P2;PMS_P1;PMS_P2;Temp;Humidity;BMP_temperature;BMP_pressure;BME280_temperature;BME280_humidity;BME280_pressure;Samples;Min_cycle;Max_cycle;Signal;HPM_P1;HPM_P2
2022/12/27 00:00:05;;;;;;;;;;;3.80;99.90;;;;;;5013321;28;19971;-71
2022/12/27 00:02:33;;;;;;;;;;;3.80;99.90;;;;;;5010881;28;19929;-71
2022/12/27 00:05:00;;;;;;;;;;;3.80;99.90;;;;;;5008879;28;19956;-71
2022/12/27 00:07:27;;;;;;;;;;;3.90;99.90;;;;;;5008355;28;20372;-70
2022/12/27 00:09:57;;;;;;;;;;;3.90;99.90;;;;;;5027227;28;20459;-72
2022/12/27 00:12:24;;;;;;;;;;;3.90;99.90;;;;;;5014324;28;20490;-72
2022/12/27 00:14:52;;;;;;;;;;;3.90;99.90;;;;;;5010161;28;19925;-70
2022/12/27 00:17:18;;;;;;;;;;;3.90;99.90;;;;;;5010683;28;19925;-71
2022/12/27 00:19:46;;;;;;;;;;;3.90;99.90;;;;;;5010933;28;20020;-70
2022/12/27 00:22:13;;;;;;;;;;;3.90;99.90;;;;;;5014173;28;19925;-69
2022/12/27 00:24:40;;;;;;;;;;;3.90;99.90;;;;;;5008987;28;20035;-69
2022/12/27 00:27:06;;;;;;;;;;;3.90;99.90;;;;;;5009469;28;19984;-70
2022/12/27 00:29:33;;;;;;;;;;;3.90;99.90;;;;;;5011541;28;19951;-70
2022/12/27 00:32:00;;;;;;;;;;;4.00;99.90;;;;;;5010164;28;20035;-70
2022/12/27 00:34:26;;;;;;;;;;;4.00;99.90;;;;;;5006636;28;20305;-70
2022/12/27 00:36:54;;;;;;;;;;;4.00;99.90;;;;;;5007730;28;21026;-71
2022/12/27 00:39:21;;;;;;;;;;;4.00;99.90;;;;;;5008405;28;20392;-71
2022/12/27 00:41:48;;;;;;;;;;;4.00;99.90;;;;;;5008877;28;20400;-72
2022/12/27 00:44:14;;;;;;;;;;;3.90;99.90;;;;;;5011281;28;20373;-71
2022/12/27 00:46:41;;;;;;;;;;;4.00;99.90;;;;;;5009857;28;19929;-71
2022/12/27 00:49:08;;;;;;;;;;;3.90;99.90;;;;;;5007587;28;19929;-72
2022/12/27 00:51:34;;;;;;;;;;;3.90;99.90;;;;;;5009929;28;19933;-72
2022/12/27 00:54:02;;;;;;;;;;;3.90;99.90;;;;;;5010248;28;19976;-72
2022/12/27 00:56:30;;;;;;;;;;;3.90;99.90;;;;;;5011059;28;19964;-73
2022/12/27 00:58:57;;;;;;;;;;;3.90;99.90;;;;;;5009045;28;19983;-72
2022/12/27 01:01:25;;;;;;;;;;;3.90;99.90;;;;;;5012456;28;20016;-72
2022/12/27 01:03:52;;;;;;;;;;;3.90;99.90;;;;;;5010417;28;19926;-72
2022/12/27 01:06:19;;;;;;;;;;;3.90;99.90;;;;;;5011923;28;19984;-71
2022/12/27 01:08:46;;;;;;;;;;;3.90;99.90;;;;;;5009958;28;19945;-72
2022/12/27 01:11:15;;;;;;;;;;;3.90;99.90;;;;;;5009652;28;20299;-72
2022/12/27 01:13:42;;;;;;;;;;;3.80;99.90;;;;;;5006040;28;20052;-73
2022/12/27 01:16:09;;;;;;;;;;;3.90;99.90;;;;;;5008329;28;19939;-71
2022/12/27 01:18:36;;;;;;;;;;;3.80;99.90;;;;;;5009348;28;20093;-70
2022/12/27 01:21:05;;;;;;;;;;;3.80;99.90;;;;;;5007633;28;19979;-71
2022/12/27 01:23:32;;;;;;;;;;;3.80;99.90;;;;;;5008323;28;20364;-71
2022/12/27 01:25:59;;;;;;;;;;;3.80;99.90;;;;;;5007557;28;19932;-71
2022/12/27 01:28:27;;;;;;;;;;;3.80;99.90;;;;;;5008419;28;20341;-71
2022/12/27 01:30:54;;;;;;;;;;;3.80;99.90;;;;;;5017237;28;19929;-73
2022/12/27 01:33:21;;;;;;;;;;;3.80;99.90;;;;;;5013367;28;19940;-72
2022/12/27 01:35:48;;;;;;;;;;;3.80;99.90;;;;;;5010571;28;20020;-72
2022/12/27 01:38:15;;;;;;;;;;;3.80;99.90;;;;;;5011290;28;20382;-72
2022/12/27 01:40:41;;;;;;;;;;;3.80;99.90;;;;;;5011264;28;19936;-72
2022/12/27 01:43:13;;;;;;;;;;;3.80;99.90;;;;;;5007508;28;19935;-72
2022/12/27 01:45:41;;;;;;;;;;;3.80;99.90;;;;;;5010016;28;22982;-72
2022/12/27 01:48:17;;;;;;;;;;;3.80;99.90;;;;;;5011111;28;20308;-71
2022/12/27 01:50:46;;;;;;;;;;;3.80;99.90;;;;;;5008776;28;20291;-71
2022/12/27 01:53:14;;;;;;;;;;;3.80;99.90;;;;;;5010585;28;20336;-71
2022/12/27 01:55:44;;;;;;;;;;;3.80;99.90;;;;;;5011199;28;19965;-71
2022/12/27 01:58:13;;;;;;;;;;;3.90;99.90;;;;;;5010268;28;19936;-72
2022/12/27 02:00:43;;;;;;;;;;;3.90;99.90;;;;;;5012305;28;19959;-71
2022/12/27 02:03:10;;;;;;;;;;;3.90;99.90;;;;;;5010809;28;19933;-71
2022/12/27 02:05:40;;;;;;;;;;;3.90;99.90;;;;;;5011762;28;19933;-71
2022/12/27 02:08:21;;;;;;;;;;;3.90;99.90;;;;;;5011005;28;19945;-72
2022/12/27 02:10:48;;;;;;;;;;;3.90;99.90;;;;;;5013001;28;20599;-71
2022/12/27 02:13:15;;;;;;;;;;;3.90;99.90;;;;;;5009986;28;19939;-72
2022/12/27 02:15:43;;;;;;;;;;;3.80;99.90;;;;;;5010597;28;20003;-71
2022/12/27 02:18:10;;;;;;;;;;;3.80;99.90;;;;;;5009534;28;19940;-72
2022/12/27 02:20:42;;;;;;;;;;;3.80;99.90;;;;;;5011471;28;19925;-72
2022/12/27 02:26:27;;;;;;;;;;;3.80;99.90;;;;;;5009262;28;20029;-71
2022/12/27 02:29:15;;;;;;;;;;;3.80;99.90;;;;;;5009158;28;19988;-72
2022/12/27 02:31:47;;;;;;;;;;;3.70;99.90;;;;;;5013227;28;20028;-72
2022/12/27 02:34:17;;;;;;;;;;;3.70;99.90;;;;;;5010358;28;20027;-73
2022/12/27 02:36:45;;;;;;;;;;;3.70;99.90;;;;;;5012513;28;19933;-72
2022/12/27 02:39:13;;;;;;;;;;;3.70;99.90;;;;;;5007683;28;20027;-72
2022/12/27 02:53:04;;;;;;;;;;;3.70;99.90;;;;;;4991843;28;19934;-72
2022/12/27 02:55:41;;;;;;;;;;;3.70;99.90;;;;;;5009500;28;19933;-71
2022/12/27 02:58:21;;;;;;;;;;;3.70;99.90;;;;;;5009286;28;19956;-71
2022/12/27 03:03:50;;;;;;;;;;;3.70;99.90;;;;;;5009134;28;19941;-71
2022/12/27 03:06:40;;;;;;;;;;;3.70;99.90;;;;;;5009590;28;19944;-72
2022/12/27 03:09:12;;;;;;;;;;;3.70;99.90;;;;;;5004599;28;19925;-72
2022/12/27 03:17:19;;;;;;;;;;;3.60;99.90;;;;;;5009439;28;19927;-73
2022/12/27 03:25:29;;;;;;;;;;;3.60;99.90;;;;;;5009371;28;19979;-71
2022/12/27 03:33:25;;;;;;;;;;;3.50;99.90;;;;;;5008299;28;20024;-73
2022/12/27 03:38:45;;;;;;;;;;;3.40;99.90;;;;;;4998140;28;19929;-72
2022/12/27 03:43:58;;;;;;;;;;;3.30;99.90;;;;;;5007376;28;19974;-72
2022/12/27 03:46:35;;;;;;;;;;;3.30;99.90;;;;;;5009301;28;19929;-72
2022/12/27 03:49:08;;;;;;;;;;;3.30;99.90;;;;;;5009115;28;19925;-72
2022/12/27 03:51:37;;;;;;;;;;;3.30;99.90;;;;;;5011328;28;19929;-73
2022/12/27 03:54:07;;;;;;;;;;;3.30;99.90;;;;;;5008278;28;19928;-72
2022/12/27 03:56:33;;;;;;;;;;;3.30;99.90;;;;;;5007785;28;19934;-72
2022/12/27 03:59:01;;;;;;;;;;;3.30;99.90;;;;;;5009222;28;20351;-72
2022/12/27 04:01:28;;;;;;;;;;;3.20;99.90;;;;;;5007908;28;20266;-72
2022/12/27 04:03:54;;;;;;;;;;;3.30;99.90;;;;;;5006629;28;19939;-72
2022/12/27 04:06:21;;;;;;;;;;;3.30;99.90;;;;;;5009560;28;19933;-72
2022/12/27 04:36:13;;;;;;;;;;;3.20;99.90;;;;;;5009041;28;19936;-71
2022/12/27 04:38:40;;;;;;;;;;;3.20;99.90;;;;;;5008769;28;19939;-71
2022/12/27 04:54:58;;;;;;;;;;;3.20;99.90;;;;;;5007975;28;19966;-73
2022/12/27 04:57:27;;;;;;;;;;;3.20;99.90;;;;;;5006911;28;20395;-72
2022/12/27 05:02:38;;;;;;;;;;;3.20;99.90;;;;;;5006605;28;19972;-73
2022/12/27 05:05:05;;;;;;;;;;;3.20;99.90;;;;;;5011250;28;19941;-73
2022/12/27 05:15:45;;;;;;;;;;;3.20;99.90;;;;;;5011408;28;19937;-71
2022/12/27 05:18:12;;;;;;;;;;;3.20;99.90;;;;;;5014830;28;19929;-72
2022/12/27 05:20:38;;;;;;;;;;;3.20;99.90;;;;;;5014071;28;19933;-73
2022/12/27 05:25:49;;;;;;;;;;;3.10;99.90;;;;;;5013406;28;20132;-73
2022/12/27 05:28:17;;;;;;;;;;;3.10;99.90;;;;;;5011383;28;19944;-73
2022/12/27 05:30:44;;;;;;;;;;;3.10;99.90;;;;;;5014410;28;19951;-73
2022/12/27 05:33:11;;;;;;;;;;;3.10;99.90;;;;;;5009812;28;19925;-72
2022/12/27 05:35:38;;;;;;;;;;;3.10;99.90;;;;;;5010707;28;19933;-72
2022/12/27 05:38:05;;;;;;;;;;;3.10;99.90;;;;;;5010891;28;19936;-72
2022/12/27 05:40:32;;;;;;;;;;;3.10;99.90;;;;;;5011277;28;20495;-72
2022/12/27 05:42:58;;;;;;;;;;;3.10;99.90;;;;;;5008939;28;19933;-72
2022/12/27 05:45:27;;;;;;;;;;;3.10;99.90;;;;;;5011456;28;19941;-72
2022/12/27 05:47:53;;;;;;;;;;;3.10;99.90;;;;;;5010228;28;20008;-72
2022/12/27 05:50:20;;;;;;;;;;;3.10;99.90;;;;;;5011869;28;19933;-72
2022/12/27 05:52:47;;;;;;;;;;;3.10;99.90;;;;;;5009958;28;19940;-72
2022/12/27 05:55:17;;;;;;;;;;;3.20;99.90;;;;;;5011958;28;19925;-72
2022/12/27 05:57:43;;;;;;;;;;;3.20;99.90;;;;;;5010017;28;19929;-72
2022/12/27 06:00:11;;;;;;;;;;;3.10;99.90;;;;;;5010957;28;20020;-71
2022/12/27 06:02:39;;;;;;;;;;;3.10;99.90;;;;;;5009324;28;20376;-71
2022/12/27 06:05:05;;;;;;;;;;;3.20;99.90;;;;;;5010824;28;20015;-72
2022/12/27 06:07:32;;;;;;;;;;;3.20;99.90;;;;;;5010127;28;20004;-72
2022/12/27 06:09:59;;;;;;;;;;;3.20;99.90;;;;;;5017100;28;19959;-71
2022/12/27 06:12:25;;;;;;;;;;;3.20;99.90;;;;;;5007381;28;20000;-71
2022/12/27 06:14:52;;;;;;;;;;;3.20;99.90;;;;;;5009649;28;20414;-72
2022/12/27 06:17:19;;;;;;;;;;;3.20;99.90;;;;;;5009060;28;19925;-72
2022/12/27 06:19:47;;;;;;;;;;;3.20;99.90;;;;;;5021623;28;20012;-72
2022/12/27 06:22:13;;;;;;;;;;;3.20;99.90;;;;;;5033499;28;20003;-73
2022/12/27 06:24:40;;;;;;;;;;;3.30;99.90;;;;;;5032977;28;19924;-73
2022/12/27 06:27:07;;;;;;;;;;;3.30;99.90;;;;;;5033566;28;19929;-73
2022/12/27 06:29:34;;;;;;;;;;;3.30;99.90;;;;;;5032419;28;19925;-73
2022/12/27 06:32:00;;;;;;;;;;;3.30;99.90;;;;;;5018373;28;20418;-73
2022/12/27 06:34:27;;;;;;;;;;;3.30;99.90;;;;;;5021641;28;19934;-72
2022/12/27 06:36:55;;;;;;;;;;;3.30;99.90;;;;;;5006092;28;19933;-73
2022/12/27 06:39:22;;;;;;;;;;;3.30;99.90;;;;;;5008590;28;20017;-74
2022/12/27 06:41:49;;;;;;;;;;;3.30;99.90;;;;;;5008547;28;20016;-73
2022/12/27 06:44:16;;;;;;;;;;;3.30;99.90;;;;;;5009897;28;19936;-72
2022/12/27 06:46:42;;;;;;;;;;;3.40;99.90;;;;;;5010153;28;20300;-71
2022/12/27 06:49:10;;;;;;;;;;;3.40;99.90;;;;;;5009157;28;20396;-72
2022/12/27 06:51:36;;;;;;;;;;;3.30;99.90;;;;;;5010447;28;19939;-72
2022/12/27 06:54:04;;;;;;;;;;;3.30;99.90;;;;;;5009519;28;19936;-72
2022/12/27 06:56:31;;;;;;;;;;;3.30;99.90;;;;;;5013200;28;20597;-72
2022/12/27 06:58:58;;;;;;;;;;;3.40;99.90;;;;;;5011784;28;20418;-73
2022/12/27 07:01:25;;;;;;;;;;;3.40;99.90;;;;;;5011350;28;19933;-73
2022/12/27 07:03:53;;;;;;;;;;;3.50;99.90;;;;;;5006951;28;20333;-74
2022/12/27 07:06:20;;;;;;;;;;;3.50;99.90;;;;;;5011813;28;19944;-74
2022/12/27 07:08:47;;;;;;;;;;;3.50;99.90;;;;;;5010328;28;19956;-73
2022/12/27 07:11:16;;;;;;;;;;;3.50;99.90;;;;;;5011357;28;19952;-73
2022/12/27 07:13:44;;;;;;;;;;;3.50;99.90;;;;;;5007898;28;19929;-73
2022/12/27 07:16:12;;;;;;;;;;;3.60;99.90;;;;;;5010019;28;19929;-71
2022/12/27 07:18:39;;;;;;;;;;;3.60;99.90;;;;;;5005732;28;19935;-72
2022/12/27 07:21:06;;;;;;;;;;;3.60;99.90;;;;;;5011441;28;19932;-71
2022/12/27 07:23:33;;;;;;;;;;;3.60;99.90;;;;;;5010002;28;19956;-75
2022/12/27 07:26:01;;;;;;;;;;;3.60;99.90;;;;;;5011507;28;20419;-74
2022/12/27 07:28:29;;;;;;;;;;;3.50;99.90;;;;;;5006916;28;19940;-75
2022/12/27 07:30:56;;;;;;;;;;;3.50;99.90;;;;;;5007685;28;19961;-72
2022/12/27 07:33:22;;;;;;;;;;;3.50;99.90;;;;;;5009128;28;19925;-75
2022/12/27 07:35:49;;;;;;;;;;;3.50;99.90;;;;;;5011731;28;20015;-74
2022/12/27 07:38:16;;;;;;;;;;;3.50;99.90;;;;;;5007823;28;19943;-74
2022/12/27 07:40:42;;;;;;;;;;;3.50;99.90;;;;;;5007949;28;20381;-73
2022/12/27 07:43:09;;;;;;;;;;;3.60;99.90;;;;;;5008023;28;19925;-75
2022/12/27 07:45:38;;;;;;;;;;;3.70;99.90;;;;;;5011289;28;20455;-75
2022/12/27 07:48:04;;;;;;;;;;;3.70;99.90;;;;;;5010950;28;19929;-72
2022/12/27 07:50:31;;;;;;;;;;;3.70;99.90;;;;;;5010601;28;19948;-74
2022/12/27 07:52:58;;;;;;;;;;;3.70;99.90;;;;;;5009897;28;19943;-71
2022/12/27 07:55:25;;;;;;;;;;;3.70;99.90;;;;;;5009237;28;20036;-73
2022/12/27 07:57:51;;;;;;;;;;;3.70;99.90;;;;;;5008588;28;19976;-75
2022/12/27 08:00:21;;;;;;;;;;;3.70;99.90;;;;;;5011593;28;20691;-74
2022/12/27 08:02:49;;;;;;;;;;;3.60;99.90;;;;;;5009134;28;19928;-74
2022/12/27 08:05:16;;;;;;;;;;;3.60;99.90;;;;;;5009305;28;19984;-74
2022/12/27 08:07:43;;;;;;;;;;;3.60;99.90;;;;;;5008997;28;20529;-74
2022/12/27 08:10:10;;;;;;;;;;;3.60;99.90;;;;;;5009632;28;19956;-74
2022/12/27 08:12:36;;;;;;;;;;;3.60;99.90;;;;;;5007989;28;19933;-75
2022/12/27 08:15:03;;;;;;;;;;;3.60;99.90;;;;;;5008963;28;21080;-75
2022/12/27 08:17:31;;;;;;;;;;;3.60;99.90;;;;;;5010447;28;19936;-74
2022/12/27 08:19:59;;;;;;;;;;;3.60;99.90;;;;;;5008342;28;19955;-75
2022/12/27 08:22:26;;;;;;;;;;;3.60;99.90;;;;;;5007522;28;19929;-76
2022/12/27 08:24:53;;;;;;;;;;;3.60;99.90;;;;;;5011365;28;19932;-74
2022/12/27 08:27:20;;;;;;;;;;;3.70;99.90;;;;;;5007566;28;19933;-76
2022/12/27 08:29:47;;;;;;;;;;;3.70;99.90;;;;;;5013833;28;19930;-76
2022/12/27 08:32:14;;;;;;;;;;;3.80;99.90;;;;;;5005303;28;19976;-76
2022/12/27 08:34:41;;;;;;;;;;;3.90;99.90;;;;;;5008147;28;19932;-75
2022/12/27 08:37:12;;;;;;;;;;;3.90;99.90;;;;;;5002003;28;20391;-74
2022/12/27 08:39:39;;;;;;;;;;;4.00;99.90;;;;;;5007225;28;19929;-76
2022/12/27 08:42:05;;;;;;;;;;;4.00;99.90;;;;;;5008710;28;19935;-73
2022/12/27 08:44:32;;;;;;;;;;;4.10;99.90;;;;;;5010193;28;20426;-75
2022/12/27 08:46:59;;;;;;;;;;;4.10;99.90;;;;;;5007597;28;20592;-77
2022/12/27 08:49:25;;;;;;;;;;;4.10;99.90;;;;;;5011897;28;19984;-75
2022/12/27 08:51:52;;;;;;;;;;;4.20;99.90;;;;;;5008403;28;19991;-74
2022/12/27 08:54:20;;;;;;;;;;;4.20;99.90;;;;;;5005118;28;20338;-74
2022/12/27 08:56:47;;;;;;;;;;;4.20;99.90;;;;;;5006181;28;20030;-73
2022/12/27 08:59:14;;;;;;;;;;;4.20;99.90;;;;;;5006935;28;19933;-75
2022/12/27 09:01:41;;;;;;;;;;;4.30;99.90;;;;;;5007793;28;20365;-74
2022/12/27 09:04:07;;;;;;;;;;;4.30;99.90;;;;;;5005348;28;19987;-73
2022/12/27 09:06:34;;;;;;;;;;;4.40;99.90;;;;;;5007089;28;19929;-72
2022/12/27 09:09:01;;;;;;;;;;;4.40;99.90;;;;;;5007952;28;20021;-73
2022/12/27 09:11:30;;;;;;;;;;;4.40;99.90;;;;;;5009851;28;20028;-75
2022/12/27 09:13:58;;;;;;;;;;;4.50;99.90;;;;;;5005080;28;19929;-75
2022/12/27 09:16:26;;;;;;;;;;;4.50;99.90;;;;;;5008476;28;20364;-75
2022/12/27 09:18:54;;;;;;;;;;;4.70;99.90;;;;;;5005849;28;20175;-74
2022/12/27 09:21:22;;;;;;;;;;;5.30;99.90;;;;;;5006802;28;20299;-74
2022/12/27 09:23:49;;;;;;;;;;;5.70;99.90;;;;;;5001632;28;19933;-74
2022/12/27 09:26:20;;;;;;;;;;;6.50;99.90;;;;;;5005903;28;20296;-75
2022/12/27 09:28:49;;;;;;;;;;;7.20;99.90;;;;;;5003588;28;19933;-75
2022/12/27 09:31:17;;;;;;;;;;;6.60;99.90;;;;;;5005684;28;19943;-73
2022/12/27 09:33:44;;;;;;;;;;;5.90;99.90;;;;;;5003376;28;19939;-74
2022/12/27 09:36:11;;;;;;;;;;;5.50;99.90;;;;;;5006020;28;19929;-73
2022/12/27 09:38:39;;;;;;;;;;;5.30;99.90;;;;;;5008118;28;20028;-75
2022/12/27 09:41:07;;;;;;;;;;;5.20;99.90;;;;;;5004883;28;19940;-75
2022/12/27 09:43:38;;;;;;;;;;;5.10;99.90;;;;;;5003673;28;19969;-75
2022/12/27 09:46:09;;;;;;;;;;;5.10;99.90;;;;;;5002609;28;20337;-74
2022/12/27 09:48:38;;;;;;;;;;;5.10;99.90;;;;;;5005560;28;20443;-75
2022/12/27 09:51:08;;;;;;;;;;;5.20;99.90;;;;;;5008814;28;19925;-76
2022/12/27 09:53:39;;;;;;;;;;;5.20;99.90;;;;;;5007705;28;19925;-76
2022/12/27 09:56:06;;;;;;;;;;;5.30;99.90;;;;;;5014946;28;19972;-74
2022/12/27 09:58:38;;;;;;;;;;;5.40;99.90;;;;;;5006565;28;20408;-75
2022/12/27 10:01:35;;;;;;;;;;;5.40;99.90;;;;;;5007173;28;19925;-78
2022/12/27 10:04:04;;;;;;;;;;;5.50;99.90;;;;;;4996614;28;20028;-79
2022/12/27 10:06:37;;;;;;;;;;;5.50;99.90;;;;;;5011869;28;19976;-78
2022/12/27 10:09:09;;;;;;;;;;;5.60;99.90;;;;;;5008859;28;22568;-79
2022/12/27 10:11:39;;;;;;;;;;;5.80;99.90;;;;;;5011044;28;19948;-78
2022/12/27 10:14:15;;;;;;;;;;;6.00;99.90;;;;;;5009125;28;19933;-79
2022/12/27 10:16:47;;;;;;;;;;;6.20;99.90;;;;;;5009961;28;19925;-79
2022/12/27 10:19:29;;;;;;;;;;;6.30;99.90;;;;;;5012238;28;19937;-80
2022/12/27 10:22:05;;;;;;;;;;;6.30;99.90;;;;;;5012624;28;20012;-79
2022/12/27 10:24:34;;;;;;;;;;;6.30;99.90;;;;;;5006395;28;20023;-76
2022/12/27 10:27:02;;;;;;;;;;;6.30;99.90;;;;;;5005605;28;20028;-76
2022/12/27 10:29:29;;;;;;;;;;;6.30;99.90;;;;;;5007251;28;19972;-76
2022/12/27 10:31:56;;;;;;;;;;;6.30;99.90;;;;;;5009599;28;20151;-76
2022/12/27 10:34:23;;;;;;;;;;;6.40;99.90;;;;;;5009026;28;21476;-76
2022/12/27 10:36:52;;;;;;;;;;;6.30;99.90;;;;;;5008963;28;19945;-74
2022/12/27 10:39:20;;;;;;;;;;;6.20;99.90;;;;;;5008207;28;19935;-76
2022/12/27 10:41:54;;;;;;;;;;;6.30;99.90;;;;;;5008046;28;19932;-75
2022/12/27 10:44:22;;;;;;;;;;;6.20;99.90;;;;;;5008309;28;19944;-75
2022/12/27 10:46:50;;;;;;;;;;;6.30;99.90;;;;;;5006927;28;19930;-75
2022/12/27 10:49:25;;;;;;;;;;;6.30;99.90;;;;;;5006295;28;19933;-75
2022/12/27 10:51:55;;;;;;;;;;;6.30;99.90;;;;;;5006610;28;19956;-75
2022/12/27 10:54:23;;;;;;;;;;;6.50;99.90;;;;;;5006004;28;19933;-74
2022/12/27 10:56:50;;;;;;;;;;;6.50;99.90;;;;;;5007191;28;19929;-73
2022/12/27 10:59:21;;;;;;;;;;;6.60;99.90;;;;;;5005278;28;20007;-75
2022/12/27 11:01:50;;;;;;;;;;;6.60;99.90;;;;;;5002430;28;20426;-74
2022/12/27 11:04:18;;;;;;;;;;;6.60;99.90;;;;;;5006856;28;19929;-73
2022/12/27 11:06:45;;;;;;;;;;;6.60;99.90;;;;;;5006518;28;19939;-74
2022/12/27 11:09:24;;;;;;;;;;;6.60;99.90;;;;;;5007018;28;19961;-74
2022/12/27 11:11:51;;;;;;;;;;;6.60;99.90;;;;;;5008673;28;19934;-74
2022/12/27 11:14:19;;;;;;;;;;;6.60;99.90;;;;;;5007688;28;19928;-74
2022/12/27 11:16:46;;;;;;;;;;;6.80;99.90;;;;;;5007770;28;19925;-74
2022/12/27 11:19:20;;;;;;;;;;;6.90;99.90;;;;;;5005295;28;19933;-73
2022/12/27 11:21:47;;;;;;;;;;;7.00;99.90;;;;;;5006784;28;19925;-73
2022/12/27 11:24:16;;;;;;;;;;;7.00;99.90;;;;;;5006485;28;20714;-75
2022/12/27 11:26:49;;;;;;;;;;;7.10;99.90;;;;;;5003685;28;19929;-74
2022/12/27 11:29:18;;;;;;;;;;;7.20;99.90;;;;;;5007103;28;19944;-73
2022/12/27 11:31:47;;;;;;;;;;;7.30;99.90;;;;;;5007842;28;20146;-72
2022/12/27 11:34:15;;;;;;;;;;;7.50;99.90;;;;;;5007294;28;19932;-72
2022/12/27 11:36:44;;;;;;;;;;;7.60;99.90;;;;;;5010550;28;19969;-75
2022/12/27 11:39:34;;;;;;;;;;;7.60;99.90;;;;;;5005438;28;20282;-74
2022/12/27 11:42:02;;;;;;;;;;;7.70;99.90;;;;;;5006825;28;20625;-75
2022/12/27 11:44:31;;;;;;;;;;;7.80;99.90;;;;;;5004700;28;19933;-73
2022/12/27 11:46:59;;;;;;;;;;;7.70;99.90;;;;;;5004283;28;19939;-76
2022/12/27 11:49:28;;;;;;;;;;;7.60;99.90;;;;;;5008159;28;20044;-74
2022/12/27 11:52:13;;;;;;;;;;;7.60;99.90;;;;;;5007698;28;19940;-74
2022/12/27 11:54:54;;;;;;;;;;;7.50;99.90;;;;;;4996196;28;19992;-75
2022/12/27 11:57:33;;;;;;;;;;;7.50;99.90;;;;;;5009293;28;19926;-73
2022/12/27 12:00:06;;;;;;;;;;;7.50;99.90;;;;;;5012808;28;20020;-74
2022/12/27 12:02:42;;;;;;;;;;;7.40;99.90;;;;;;5013069;28;20353;-75
2022/12/27 12:05:27;;;;;;;;;;;7.40;99.90;;;;;;5010500;28;19925;-74
2022/12/27 12:08:04;;;;;;;;;;;7.40;99.90;;;;;;5008213;28;20023;-73
2022/12/27 12:10:36;;;;;;;;;;;7.40;99.90;;;;;;5007363;28;20028;-74
2022/12/27 12:13:18;;;;;;;;;;;7.30;99.90;;;;;;5015685;28;19933;-74
2022/12/27 12:15:50;;;;;;;;;;;7.40;99.90;;;;;;5009016;28;19943;-74
2022/12/27 12:18:24;;;;;;;;;;;7.40;99.90;;;;;;5004108;28;21043;-74
2022/12/27 12:21:01;;;;;;;;;;;7.40;99.90;;;;;;5009645;28;22185;-74
2022/12/27 12:23:40;;;;;;;;;;;7.40;99.90;;;;;;5011736;28;19961;-74
2022/12/27 12:26:16;;;;;;;;;;;7.40;99.90;;;;;;5019751;28;20046;-74
2022/12/27 12:29:04;;;;;;;;;;;7.40;99.90;;;;;;5011180;28;20031;-73
2022/12/27 12:31:46;;;;;;;;;;;7.30;99.90;;;;;;5002708;28;19933;-74
2022/12/27 12:34:27;;;;;;;;;;;7.30;99.90;;;;;;5001403;28;20406;-74
2022/12/27 12:37:05;;;;;;;;;;;7.40;99.90;;;;;;5003221;28;20365;-75
2022/12/27 12:39:40;;;;;;;;;;;7.40;99.90;;;;;;5005902;28;19973;-75
2022/12/27 12:42:13;;;;;;;;;;;7.40;99.90;;;;;;5002131;28;19939;-75
2022/12/27 12:44:51;;;;;;;;;;;7.40;99.90;;;;;;5007375;28;19991;-76
2022/12/27 12:47:29;;;;;;;;;;;7.40;99.90;;;;;;5002944;28;19933;-76
2022/12/27 12:50:10;;;;;;;;;;;7.40;99.90;;;;;;5009956;28;20396;-75
2022/12/27 12:52:49;;;;;;;;;;;7.40;99.90;;;;;;5005212;28;19940;-74
2022/12/27 12:55:26;;;;;;;;;;;7.40;99.90;;;;;;5004506;28;19933;-76
2022/12/27 12:57:59;;;;;;;;;;;7.40;99.90;;;;;;5004683;28;19929;-75
2022/12/27 13:00:31;;;;;;;;;;;7.40;99.90;;;;;;5005125;28;19934;-76
2022/12/27 13:03:16;;;;;;;;;;;7.50;99.90;;;;;;5004011;28;19929;-76
2022/12/27 13:05:46;;;;;;;;;;;7.50;99.90;;;;;;5004883;28;20924;-76
2022/12/27 13:08:17;;;;;;;;;;;7.60;99.90;;;;;;5003953;28;19929;-76
2022/12/27 13:10:53;;;;;;;;;;;7.50;99.90;;;;;;5009229;28;19932;-76
2022/12/27 13:13:25;;;;;;;;;;;7.50;99.90;;;;;;5003756;28;19933;-75
2022/12/27 13:15:55;;;;;;;;;;;7.50;99.90;;;;;;5009642;28;20024;-80
2022/12/27 13:18:26;;;;;;;;;;;7.60;99.90;;;;;;5009027;28;19925;-78
2022/12/27 13:20:59;;;;;;;;;;;7.60;99.90;;;;;;5005908;28;20416;-72
2022/12/27 13:23:38;;;;;;;;;;;7.60;99.90;;;;;;5008687;28;19939;-76
2022/12/27 13:26:10;;;;;;;;;;;7.70;99.90;;;;;;5010623;28;19929;-77
2022/12/27 13:28:41;;;;;;;;;;;7.70;99.90;;;;;;5006501;28;19964;-75
2022/12/27 13:31:13;;;;;;;;;;;7.70;99.90;;;;;;5010470;28;19935;-76
2022/12/27 13:33:48;;;;;;;;;;;7.70;99.90;;;;;;5007312;28;20035;-75
2022/12/27 13:36:20;;;;;;;;;;;7.70;99.90;;;;;;5007390;28;20396;-75
2022/12/27 13:38:58;;;;;;;;;;;7.80;99.90;;;;;;5008077;28;19969;-75
2022/12/27 13:41:31;;;;;;;;;;;7.90;99.90;;;;;;5010733;28;19984;-79
2022/12/27 13:44:03;;;;;;;;;;;7.90;99.90;;;;;;5010168;28;20369;-77
2022/12/27 13:46:47;;;;;;;;;;;7.90;99.90;;;;;;5009972;28;20016;-75
2022/12/27 13:49:21;;;;;;;;;;;8.00;99.90;;;;;;5010339;28;20060;-75
2022/12/27 13:51:50;;;;;;;;;;;8.00;99.90;;;;;;5009279;28;19933;-75
2022/12/27 13:54:44;;;;;;;;;;;8.00;99.90;;;;;;5008438;28;20041;-75
2022/12/27 13:57:22;;;;;;;;;;;8.00;99.90;;;;;;5007321;28;20004;-74
2022/12/27 13:59:54;;;;;;;;;;;8.00;99.90;;;;;;5009758;28;20346;-75
2022/12/27 14:02:38;;;;;;;;;;;8.00;99.90;;;;;;5009265;28;19926;-75
2022/12/27 14:05:23;;;;;;;;;;;8.10;99.90;;;;;;5010146;28;19928;-75
2022/12/27 14:07:56;;;;;;;;;;;8.00;99.90;;;;;;5009256;28;19926;-74
2022/12/27 14:10:28;;;;;;;;;;;8.00;99.90;;;;;;5012179;28;19941;-75
2022/12/27 14:12:59;;;;;;;;;;;7.90;99.90;;;;;;5007107;28;20407;-76
2022/12/27 14:15:28;;;;;;;;;;;7.90;99.90;;;;;;5010257;28;19971;-74
2022/12/27 14:18:04;;;;;;;;;;;7.80;99.90;;;;;;5008279;28;19933;-76
2022/12/27 14:20:39;;;;;;;;;;;7.80;99.90;;;;;;5009942;28;20502;-75
2022/12/27 14:23:16;;;;;;;;;;;7.70;99.90;;;;;;5008404;28;19929;-75
2022/12/27 14:26:01;;;;;;;;;;;7.70;99.90;;;;;;5007351;28;19929;-77
2022/12/27 14:28:46;;;;;;;;;;;7.60;99.90;;;;;;5008650;28;19972;-75
2022/12/27 14:31:25;;;;;;;;;;;7.60;99.90;;;;;;5011356;28;20312;-75
2022/12/27 14:34:15;;;;;;;;;;;7.60;99.90;;;;;;5005922;28;19939;-75
2022/12/27 14:37:03;;;;;;;;;;;7.50;99.90;;;;;;5009092;28;20035;-75
2022/12/27 14:39:40;;;;;;;;;;;7.50;99.90;;;;;;5009342;28;19935;-75
2022/12/27 14:42:30;;;;;;;;;;;7.50;99.90;;;;;;5007495;28;19933;-74
2022/12/27 14:45:15;;;;;;;;;;;7.40;99.90;;;;;;5007744;28;20501;-75
2022/12/27 14:48:05;;;;;;;;;;;7.50;99.90;;;;;;5008654;28;19965;-76
2022/12/27 14:50:55;;;;;;;;;;;7.40;99.90;;;;;;5006309;28;19964;-75
2022/12/27 14:53:35;;;;;;;;;;;7.50;99.90;;;;;;5004013;28;19941;-75
2022/12/27 14:56:12;;;;;;;;;;;7.50;99.90;;;;;;5009436;28;19929;-75
2022/12/27 14:58:56;;;;;;;;;;;7.50;99.90;;;;;;5009846;28;20308;-76
2022/12/27 15:01:29;;;;;;;;;;;7.40;99.90;;;;;;5006647;28;19978;-76
2022/12/27 15:03:59;;;;;;;;;;;7.40;99.90;;;;;;5008898;28;20023;-75
2022/12/27 15:06:46;;;;;;;;;;;7.50;99.90;;;;;;5007628;28;19929;-75
2022/12/27 15:09:18;;;;;;;;;;;7.40;99.90;;;;;;5008988;28;20951;-75
2022/12/27 15:12:03;;;;;;;;;;;7.40;99.90;;;;;;5007155;28;19930;-75
2022/12/27 15:14:38;;;;;;;;;;;7.40;99.90;;;;;;5007795;28;20027;-76
2022/12/27 15:17:10;;;;;;;;;;;7.40;99.90;;;;;;5007252;28;20019;-75
2022/12/27 15:19:42;;;;;;;;;;;7.40;99.90;;;;;;5008888;28;19933;-75
2022/12/27 15:22:11;;;;;;;;;;;7.40;99.90;;;;;;5006436;28;19936;-75
2022/12/27 15:24:46;;;;;;;;;;;7.30;99.90;;;;;;5010916;28;19944;-75
2022/12/27 15:27:19;;;;;;;;;;;7.20;99.90;;;;;;5004871;28;20285;-75
2022/12/27 15:29:51;;;;;;;;;;;7.20;99.90;;;;;;5010796;28;19936;-75
2022/12/27 15:32:24;;;;;;;;;;;7.10;99.90;;;;;;5005994;28;19934;-76
2022/12/27 15:34:57;;;;;;;;;;;7.00;99.90;;;;;;5008886;28;19933;-75
2022/12/27 15:37:43;;;;;;;;;;;7.00;99.90;;;;;;5007896;28;19926;-75
2022/12/27 15:40:22;;;;;;;;;;;6.90;99.90;;;;;;5009489;28;19971;-75
2022/12/27 15:42:54;;;;;;;;;;;7.00;99.90;;;;;;5006544;28;19933;-75
2022/12/27 15:45:33;;;;;;;;;;;6.90;99.90;;;;;;5005259;28;19929;-75
2022/12/27 15:48:09;;;;;;;;;;;6.90;99.90;;;;;;5011814;28;20397;-75
2022/12/27 15:50:45;;;;;;;;;;;6.90;99.90;;;;;;5004486;28;20032;-75
2022/12/27 15:53:30;;;;;;;;;;;6.90;99.90;;;;;;5005245;28;19952;-72
2022/12/27 15:56:06;;;;;;;;;;;6.80;99.90;;;;;;5007547;28;19929;-71
2022/12/27 15:58:34;;;;;;;;;;;6.80;99.90;;;;;;5006877;28;19948;-75
2022/12/27 16:01:19;;;;;;;;;;;6.80;99.90;;;;;;5008761;28;19941;-75
2022/12/27 16:03:47;;;;;;;;;;;6.80;99.90;;;;;;5005966;28;19933;-75
2022/12/27 16:06:28;;;;;;;;;;;6.70;99.90;;;;;;5008908;28;19933;-75
2022/12/27 16:09:10;;;;;;;;;;;6.70;99.90;;;;;;5006603;28;20396;-75
2022/12/27 16:11:52;;;;;;;;;;;6.60;99.90;;;;;;5008913;28;20354;-74
2022/12/27 16:14:26;;;;;;;;;;;6.60;99.90;;;;;;5005099;28;19925;-76
2022/12/27 16:16:53;;;;;;;;;;;6.50;99.90;;;;;;5003381;28;19933;-75
2022/12/27 16:19:24;;;;;;;;;;;6.50;99.90;;;;;;5003792;28;19944;-75
2022/12/27 16:21:51;;;;;;;;;;;6.50;99.90;;;;;;5005759;28;19931;-75
2022/12/27 16:24:19;;;;;;;;;;;6.50;99.90;;;;;;5004609;28;19933;-75
2022/12/27 16:26:50;;;;;;;;;;;6.40;99.90;;;;;;5008408;28;19933;-75